Time;durP1;ratioP1;P1;durP2;ratioP2;P2;SDS_P1;SDS_P2;PMS_P1;PMS_P2;Temp;Humidity;BMP_temperature;BMP_pressure;BME280_temperature;BME280_humidity;BME280_pressure;Samples;Min_cycle;Max_cycle;Signal;HPM_P1;HPM_P2
2023/03/24 00:07:29;;;;;;;810.22;739.40;;;;;;;22.62;48.21;100101.94;20523888;28;20047;-74
2023/03/24 00:17:29;;;;;;;846.72;773.38;;;;;;;22.59;48.15;100094.28;20511379;28;20100;-75
2023/03/24 00:27:30;;;;;;;892.63;816.28;;;;;;;22.57;48.05;100082.19;20524721;28;20047;-75
2023/03/24 00:37:30;;;;;;;1059.63;973.80;;;;;;;22.55;48.02;100071.78;20516647;28;20043;-75
2023/03/24 00:47:36;;;;;;;1188.88;999.90;;;;;;;22.51;47.59;100063.31;20517793;28;20069;-75
2023/03/24 00:57:39;;;;;;;1060.50;974.38;;;;;;;22.48;47.73;100045.09;20509378;28;20371;-76
2023/03/24 01:07:43;;;;;;;1042.88;957.90;;;;;;;22.46;48.17;100036.50;20516948;28;20466;-75
2023/03/24 01:17:45;;;;;;;1155.18;999.90;;;;;;;22.46;47.79;100036.50;20517124;28;20102;-76
2023/03/24 01:27:48;;;;;;;1182.47;999.90;;;;;;;22.41;47.66;100000.94;20516214;28;20046;-75
2023/03/24 01:37:48;;;;;;;1175.18;999.90;;;;;;;22.38;47.85;100005.50;20513248;28;20118;-76
2023/03/24 01:47:49;;;;;;;1191.50;999.90;;;;;;;22.36;47.67;99994.25;20508544;28;20051;-76
2023/03/24 01:57:57;;;;;;;1031.13;946.92;;;;;;;22.36;47.37;99996.03;20515695;28;20042;-75
2023/03/24 02:08:12;;;;;;;1031.55;947.17;;;;;;;22.34;47.65;99993.53;20506444;28;20026;-76
2023/03/24 02:18:33;;;;;;;1182.20;999.90;;;;;;;22.32;47.39;99986.72;20503177;28;20153;-75
2023/03/24 02:28:52;;;;;;;1171.10;999.90;;;;;;;22.31;47.63;99995.59;20487493;28;20106;-75
2023/03/24 02:39:28;;;;;;;1131.20;999.90;;;;;;;22.31;47.33;99992.97;20510841;28;20198;-74
2023/03/24 02:49:59;;;;;;;1096.75;999.30;;;;;;;22.30;47.62;99988.66;20514246;28;20054;-77
2023/03/24 03:00:47;;;;;;;538.90;488.00;;;;;;;22.27;47.89;99968.66;20513959;28;20051;-76
2023/03/24 03:10:50;;;;;;;483.83;436.70;;;;;;;22.27;47.50;99962.56;20487613;28;20054;-73
2023/03/24 03:31:58;;;;;;;488.38;441.10;;;;;;;22.25;47.46;99961.88;20501511;28;20579;-75
2023/03/24 03:41:58;;;;;;;452.73;407.90;;;;;;;22.22;47.58;99955.88;20515259;28;20114;-75
2023/03/24 03:51:59;;;;;;;485.63;438.60;;;;;;;22.21;47.69;99956.84;20524201;28;20051;-75
2023/03/24 04:02:25;;;;;;;472.38;426.05;;;;;;;22.20;47.56;99949.06;20527032;28;20293;-75
2023/03/24 04:12:28;;;;;;;466.10;420.38;;;;;;;22.19;47.77;99935.06;20486622;28;20418;-74
2023/03/24 04:23:00;;;;;;;469.67;423.80;;;;;;;22.18;47.54;99946.59;20515330;28;20098;-75
2023/03/24 04:33:09;;;;;;;489.83;442.55;;;;;;;22.17;47.73;99944.09;20510342;28;20039;-75
2023/03/24 04:43:19;;;;;;;488.77;441.48;;;;;;;22.18;47.80;99951.00;20515308;28;20482;-74
2023/03/24 04:53:20;;;;;;;469.17;423.27;;;;;;;22.17;48.19;99952.81;20511452;28;20065;-76
2023/03/24 05:03:21;;;;;;;476.90;430.35;;;;;;;22.22;47.62;99958.53;20516243;28;20054;-77
2023/03/24 05:13:21;;;;;;;487.23;440.10;;;;;;;22.18;47.57;99958.91;20511421;28;20062;-76
2023/03/24 05:23:23;;;;;;;475.10;428.73;;;;;;;22.16;47.56;99969.63;20504708;28;20051;-81
2023/03/24 05:33:24;;;;;;;504.80;455.95;;;;;;;22.23;48.79;99973.38;20534797;28;20294;-76
2023/03/24 05:43:25;;;;;;;490.23;442.55;;;;;;;22.26;49.78;99977.53;20509276;28;21787;-78
2023/03/24 05:53:26;;;;;;;516.60;466.55;;;;;;;22.30;50.36;99978.09;20526965;28;20172;-75
2023/03/24 06:03:32;;;;;;;491.27;442.83;;;;;;;22.29;47.21;99993.09;20528895;28;20059;-77
2023/03/24 06:13:35;;;;;;;516.58;466.83;;;;;;;22.31;48.93;99983.22;20531420;28;20091;-80
2023/03/24 06:23:35;;;;;;;492.67;444.58;;;;;;;22.36;48.81;99985.47;20530873;28;20051;-80
2023/03/24 06:33:37;;;;;;;509.92;460.73;;;;;;;22.09;42.66;99989.56;20512678;28;20055;-79
2023/03/24 06:43:37;;;;;;;513.83;464.57;;;;;;;22.09;41.23;99992.22;20516553;28;20059;-75
2023/03/24 06:53:40;;;;;;;500.35;451.80;;;;;;;22.17;42.73;99979.19;20518390;28;20082;-75
2023/03/24 07:03:41;;;;;;;483.80;436.63;;;;;;;22.20;43.90;99980.72;20526317;28;20034;-75
2023/03/24 07:13:42;;;;;;;491.70;443.92;;;;;;;22.24;45.19;99961.03;20538698;28;20129;-76
2023/03/24 07:23:49;;;;;;;534.58;483.80;;;;;;;22.30;46.35;99960.50;20531379;28;20059;-76
2023/03/24 07:33:50;;;;;;;487.40;439.75;;;;;;;22.32;47.07;99945.34;20534246;28;20043;-76
2023/03/24 07:43:50;;;;;;;499.58;451.23;;;;;;;22.35;45.38;99933.69;20545089;28;20053;-76
2023/03/24 07:53:51;;;;;;;510.67;461.70;;;;;;;22.32;42.88;99934.78;20542261;28;20045;-75
2023/03/24 08:03:54;;;;;;;529.42;478.95;;;;;;;22.30;41.95;99936.75;20547175;28;20521;-76
2023/03/24 08:13:57;;;;;;;514.83;465.08;;;;;;;22.27;40.75;99921.19;20541861;28;20047;-78
2023/03/24 08:23:57;;;;;;;548.33;496.40;;;;;;;22.22;40.22;99907.59;20538788;28;20051;-77
2023/03/24 08:33:58;;;;;;;856.53;782.33;;;;;;;22.18;38.46;99901.75;20545949;28;20042;-76
2023/03/24 08:44:02;;;;;;;955.22;875.08;;;;;;;22.16;37.74;99887.88;20552468;28;20051;-77
2023/03/24 08:54:02;;;;;;;164.95;148.15;;;;;;;22.14;38.30;99884.56;20535988;28;20054;-78
2023/03/24 09:04:04;;;;;;;165.48;148.65;;;;;;;22.11;37.23;99887.44;20547709;28;20038;-79
2023/03/24 09:14:04;;;;;;;201.55;181.85;;;;;;;22.00;36.80;99879.69;20585467;28;20507;-77
2023/03/24 09:24:11;;;;;;;553.60;503.02;;;;;;;21.99;36.41;99878.81;20583288;28;20046;-79
2023/03/24 09:34:12;;;;;;;46.20;23.65;;;;;;;21.99;35.06;99870.91;20568121;28;20074;-76
2023/03/24 09:44:39;;;;;;;47.58;27.00;;;;;;;22.02;35.09;99865.38;20535100;28;20059;-76
2023/03/24 09:54:47;;;;;;;171.50;154.57;;;;;;;22.05;36.27;99830.00;20532945;28;20121;-77
2023/03/24 10:04:48;;;;;;;90.47;81.90;;;;;;;22.12;35.66;99817.06;20524030;28;20057;-76
2023/03/24 10:15:01;;;;;;;27.17;21.40;;;;;;;22.20;36.33;99804.03;20549606;28;20118;-76
2023/03/24 10:25:11;;;;;;;19.50;17.33;;;;;;;22.26;36.50;99789.47;20546145;28;20106;-78
2023/03/24 10:35:21;;;;;;;21.55;18.08;;;;;;;22.32;36.33;99781.00;20529812;28;20042;-78
2023/03/24 10:45:28;;;;;;;29.85;20.55;;;;;;;22.37;36.18;99774.34;20528121;28;20035;-76
2023/03/24 10:55:34;;;;;;;23.73;18.27;;;;;;;22.46;36.54;99769.19;20542652;28;20146;-77
2023/03/24 11:05:37;;;;;;;30.42;25.30;;;;;;;22.55;35.12;99760.44;20548560;28;20111;-78
2023/03/24 11:15:52;;;;;;;40.22;31.05;;;;;;;22.63;36.55;99746.50;20537534;28;20051;-78
2023/03/24 11:26:21;;;;;;;66.03;59.20;;;;;;;22.71;36.67;99744.00;20548761;28;20046;-78
2023/03/24 11:36:29;;;;;;;68.25;57.50;;;;;;;22.79;36.73;99714.22;20543790;28;20478;-77
2023/03/24 11:46:29;;;;;;;75.90;67.63;;;;;;;22.85;36.64;99696.00;20551732;28;20057;-75
2023/03/24 11:56:44;;;;;;;45.75;40.78;;;;;;;22.93;36.28;99676.78;20546334;28;20501;-75
2023/03/24 12:07:24;;;;;;;64.72;58.72;;;;;;;23.00;36.58;99656.72;20534663;28;20054;-76
2023/03/24 12:17:36;;;;;;;18.98;11.48;;;;;;;23.07;36.72;99635.84;20441581;28;20048;-78
2023/03/24 12:27:55;;;;;;;23.63;17.98;;;;;;;23.14;36.18;99617.59;20536168;28;20532;-77
2023/03/24 12:38:23;;;;;;;16.20;14.68;;;;;;;23.18;35.78;99611.88;20536240;28;20054;-77
2023/03/24 12:48:48;;;;;;;22.75;20.70;;;;;;;23.26;35.62;99603.19;20535742;28;20379;-80
2023/03/24 12:59:01;;;;;;;200.10;179.47;;;;;;;23.31;34.03;99590.41;20529361;28;20495;-82
2023/03/24 13:09:11;;;;;;;11.45;3.72;;;;;;;23.38;37.29;99580.03;20528150;28;20077;-82
2023/03/24 13:19:33;;;;;;;15.20;3.30;;;;;;;23.46;35.48;99561.59;20524908;28;20474;-78
2023/03/24 13:30:03;;;;;;;4.93;2.40;;;;;;;23.57;35.54;99554.41;20533533;28;20046;-76
2023/03/24 13:40:17;;;;;;;5.50;2.53;;;;;;;23.63;35.88;99554.63;20534065;28;20047;-77
2023/03/24 13:50:18;;;;;;;4.55;2.30;;;;;;;23.56;34.74;99540.38;20538989;28;20134;-78
2023/03/24 14:00:25;;;;;;;7.88;2.22;;;;;;;23.62;35.74;99521.25;20520354;28;20062;-76
2023/03/24 14:10:35;;;;;;;5.55;2.00;;;;;;;23.68;34.48;99514.53;20530156;28;20035;-77
2023/03/24 14:20:41;;;;;;;4.85;2.20;;;;;;;23.74;34.66;99511.25;20536452;28;21739;-80
2023/03/24 14:31:14;;;;;;;4.47;2.55;;;;;;;23.80;34.26;99499.19;20528470;28;20072;-78
2023/03/24 14:41:25;;;;;;;4.00;2.00;;;;;;;23.77;34.21;99496.88;20499721;28;20499;-78
2023/03/24 14:51:50;;;;;;;3.60;2.25;;;;;;;23.62;31.94;99478.97;20520419;28;20123;-77
2023/03/24 15:02:00;;;;;;;3.78;1.90;;;;;;;23.59;30.39;99481.09;20520032;28;20114;-80
2023/03/24 15:12:00;;;;;;;6.35;2.30;;;;;;;23.54;33.39;99470.16;20532396;28;20054;-77
2023/03/24 15:22:11;;;;;;;7.65;2.63;;;;;;;23.51;31.92;99455.47;20521998;28;20051;-79
2023/03/24 15:32:17;;;;;;;6.10;2.50;;;;;;;23.48;33.15;99453.13;20524449;28;20502;-79
2023/03/24 15:42:22;;;;;;;4.03;2.10;;;;;;;23.42;32.57;99456.38;20545539;28;20122;-79
2023/03/24 15:52:28;;;;;;;3.78;2.50;;;;;;;23.40;32.72;99448.63;20546588;28;20494;-79
2023/03/24 16:02:32;;;;;;;3.90;2.35;;;;;;;23.37;32.95;99448.09;20524347;28;20079;-79
2023/03/24 16:12:35;;;;;;;3.85;2.20;;;;;;;23.30;33.46;99446.09;20539681;28;20061;-80
2023/03/24 16:22:35;;;;;;;3.97;2.28;;;;;;;23.28;33.78;99444.59;20543455;28;20054;-79
2023/03/24 16:32:36;;;;;;;5.43;2.60;;;;;;;23.24;34.22;99446.72;20534908;28;20043;-77
2023/03/24 16:42:36;;;;;;;4.22;2.65;;;;;;;23.21;34.56;99439.09;20530647;28;20482;-83
2023/03/24 16:52:37;;;;;;;12.70;2.75;;;;;;;23.19;34.32;99438.41;20524393;28;20082;-77
2023/03/24 17:02:45;;;;;;;7.55;2.50;;;;;;;23.18;34.98;99436.78;20508554;28;20054;-80
2023/03/24 17:12:46;;;;;;;6.63;3.70;;;;;;;23.15;34.78;99432.56;20521753;28;20035;-79
2023/03/24 17:22:50;;;;;;;4.55;3.15;;;;;;;23.12;35.01;99426.78;20536911;28;20066;-83
2023/03/24 17:32:51;;;;;;;7.22;3.47;;;;;;;23.11;35.93;99419.84;20517638;28;20286;-81
2023/03/24 17:42:52;;;;;;;632.42;573.95;;;;;;;23.12;37.67;99419.69;20529844;28;20082;-83
2023/03/24 17:52:53;;;;;;;289.27;260.10;;;;;;;23.15;37.86;99416.72;20520786;28;20082;-84
2023/03/24 18:02:54;;;;;;;263.45;237.13;;;;;;;23.23;38.33;99417.78;20486392;28;21709;-78
2023/03/24 18:12:55;;;;;;;338.10;303.42;;;;;;;23.28;38.90;99423.47;20512288;28;20042;-76
2023/03/24 18:22:56;;;;;;;307.80;276.02;;;;;;;23.38;42.93;99432.09;20527468;28;20050;-78
2023/03/24 18:33:00;;;;;;;383.30;344.13;;;;;;;23.48;43.05;99437.25;20503006;28;20495;-76
2023/03/24 18:43:01;;;;;;;633.13;573.53;;;;;;;23.54;43.90;99436.63;20517866;28;20114;-76
2023/03/24 18:53:02;;;;;;;393.33;353.05;;;;;;;23.59;43.44;99438.81;20520220;28;20047;-77
2023/03/24 19:03:03;;;;;;;381.08;341.63;;;;;;;23.59;43.24;99434.34;20534489;28;20054;-78
2023/03/24 19:13:04;;;;;;;414.77;372.02;;;;;;;23.59;43.37;99425.59;20533086;28;20149;-78
2023/03/24 19:23:05;;;;;;;627.55;568.90;;;;;;;23.63;43.67;99411.06;20532404;28;20081;-86
2023/03/24 19:33:10;;;;;;;271.52;244.18;;;;;;;23.64;43.76;99407.44;20557379;28;20414;-84
2023/03/24 19:43:11;;;;;;;253.07;227.70;;;;;;;23.63;43.24;99414.56;20558986;28;20074;-86
2023/03/24 19:53:12;;;;;;;263.33;237.05;;;;;;;23.63;43.64;99414.56;20552778;28;20047;-82
2023/03/24 20:03:13;;;;;;;243.65;219.65;;;;;;;23.63;43.30;99406.63;20554821;28;20102;-83
2023/03/24 20:13:14;;;;;;;220.98;199.60;;;;;;;23.58;42.80;99397.50;20538313;28;20127;-76
2023/03/24 20:23:15;;;;;;;223.82;201.65;;;;;;;23.53;42.69;99389.25;20545188;28;20171;-76
2023/03/24 20:33:16;;;;;;;242.90;219.13;;;;;;;23.46;43.04;99408.38;20555518;28;20082;-78
2023/03/24 20:43:17;;;;;;;246.18;221.90;;;;;;;23.46;42.71;99426.84;20530878;28;20073;-77
2023/03/24 20:53:18;;;;;;;257.83;232.25;;;;;;;23.41;42.66;99423.88;20535102;28;20047;-76
2023/03/24 21:03:20;;;;;;;258.42;232.80;;;;;;;23.38;42.67;99403.03;20545234;28;20101;-76
2023/03/24 21:13:22;;;;;;;241.10;217.68;;;;;;;23.34;42.88;99415.72;20540297;28;20047;-76
2023/03/24 21:23:23;;;;;;;228.77;206.63;;;;;;;23.32;42.92;99428.25;20528975;28;20470;-76
2023/03/24 21:33:25;;;;;;;232.90;210.33;;;;;;;23.28;43.22;99421.63;20529902;28;20043;-78
2023/03/24 21:43:27;;;;;;;246.85;222.55;;;;;;;23.25;43.53;99427.22;20518873;28;20102;-77
2023/03/24 21:53:33;;;;;;;253.25;228.35;;;;;;;23.24;43.39;99446.72;20526651;28;20058;-77
2023/03/24 22:03:36;;;;;;;238.13;215.05;;;;;;;23.21;43.54;99447.00;20525638;28;20097;-77
2023/03/24 22:13:37;;;;;;;;;;;;;;;23.18;43.47;99458.72;20536468;28;20093;-76
2023/03/24 22:23:41;;;;;;;240.20;217.07;;;;;;;23.17;43.42;99456.25;20534053;28;19965;-77
2023/03/24 22:33:42;;;;;;;256.15;231.00;;;;;;;23.15;43.29;99439.69;20525192;28;20074;-77
2023/03/24 22:43:50;;;;;;;256.83;231.97;;;;;;;23.13;43.24;99428.44;20546921;28;20070;-76
2023/03/24 22:53:51;;;;;;;243.25;219.70;;;;;;;23.10;43.37;99418.19;20549037;28;20065;-76
2023/03/24 23:03:51;;;;;;;257.00;232.17;;;;;;;23.07;43.55;99427.25;20550463;28;20130;-77
2023/03/24 23:13:52;;;;;;;241.43;218.20;;;;;;;23.05;43.41;99420.47;20544990;28;20387;-78
2023/03/24 23:23:52;;;;;;;242.10;218.77;;;;;;;23.05;43.43;99421.28;20556612;28;20126;-77
2023/03/24 23:33:55;;;;;;;237.52;214.57;;;;;;;23.02;43.65;99411.88;20537526;28;20086;-77
2023/03/24 23:43:56;;;;;;;246.50;222.77;;;;;;;23.01;43.45;99402.28;20539733;28;20039;-77
2023/03/24 23:53:56;;;;;;;246.60;222.73;;;;;;;23.00;43.64;99383.97;20531564;28;20055;-77
